sensor_id;sensor_type;location;lat;lon;timestamp;pressure;altitude;pressure_sealevel;temperature;humidity
18819;BME280;9537;45.594;9.294;2022-08-02T00:00:35;99371.00;;;28.34;37.24
18819;BME280;9537;45.594;9.294;2022-08-02T00:01:37;99373.50;;;28.30;37.36
18819;BME280;9537;45.594;9.294;2022-08-02T00:02:39;99375.09;;;28.32;37.24
18819;BME280;9537;45.594;9.294;2022-08-02T00:03:42;99380.34;;;28.28;36.46
18819;BME280;9537;45.594;9.294;2022-08-02T00:04:43;99377.53;;;28.33;36.23
18819;BME280;9537;45.594;9.294;2022-08-02T00:05:44;99374.22;;;28.36;36.00
18819;BME280;9537;45.594;9.294;2022-08-02T00:06:46;99374.59;;;28.29;35.43
18819;BME280;9537;45.594;9.294;2022-08-02T00:07:48;99383.19;;;28.37;35.41
18819;BME280;9537;45.594;9.294;2022-08-02T00:08:50;99378.34;;;28.34;37.28
18819;BME280;9537;45.594;9.294;2022-08-02T00:09:51;99374.09;;;28.27;37.52
18819;BME280;9537;45.594;9.294;2022-08-02T00:10:53;99377.63;;;28.28;37.58
18819;BME280;9537;45.594;9.294;2022-08-02T00:11:54;99374.59;;;28.29;37.84
18819;BME280;9537;45.594;9.294;2022-08-02T00:12:56;99374.81;;;28.33;37.77
18819;BME280;9537;45.594;9.294;2022-08-02T00:13:58;99372.69;;;28.30;37.56
18819;BME280;9537;45.594;9.294;2022-08-02T00:15:01;99378.94;;;28.30;37.67
18819;BME280;9537;45.594;9.294;2022-08-02T00:16:02;99376.50;;;28.29;37.88
18819;BME280;9537;45.594;9.294;2022-08-02T00:17:05;99373.78;;;28.29;38.23
18819;BME280;9537;45.594;9.294;2022-08-02T00:18:06;99379.00;;;28.25;39.38
18819;BME280;9537;45.594;9.294;2022-08-02T00:19:07;99376.69;;;28.19;39.67
18819;BME280;9537;45.594;9.294;2022-08-02T00:20:09;99374.97;;;28.23;40.04
18819;BME280;9537;45.594;9.294;2022-08-02T00:21:12;99368.81;;;28.17;40.27
18819;BME280;9537;45.594;9.294;2022-08-02T00:22:13;99373.75;;;28.15;40.03
18819;BME280;9537;45.594;9.294;2022-08-02T00:23:15;99369.94;;;28.16;39.36
18819;BME280;9537;45.594;9.294;2022-08-02T00:24:16;99368.91;;;28.12;38.84
18819;BME280;9537;45.594;9.294;2022-08-02T00:25:19;99364.38;;;28.07;38.30
18819;BME280;9537;45.594;9.294;2022-08-02T00:26:20;99362.81;;;28.01;38.10
18819;BME280;9537;45.594;9.294;2022-08-02T00:27:21;99369.94;;;27.97;37.66
18819;BME280;9537;45.594;9.294;2022-08-02T00:28:23;99359.97;;;27.93;37.81
18819;BME280;9537;45.594;9.294;2022-08-02T00:29:25;99361.28;;;27.95;37.88
18819;BME280;9537;45.594;9.294;2022-08-02T00:30:27;99360.78;;;27.93;38.58
18819;BME280;9537;45.594;9.294;2022-08-02T00:31:29;99374.13;;;27.90;39.08
18819;BME280;9537;45.594;9.294;2022-08-02T00:32:30;99367.47;;;27.82;39.11
18819;BME280;9537;45.594;9.294;2022-08-02T00:33:32;99366.38;;;27.83;39.11
18819;BME280;9537;45.594;9.294;2022-08-02T00:34:33;99363.28;;;27.90;38.89
18819;BME280;9537;45.594;9.294;2022-08-02T00:35:35;99370.09;;;27.87;39.02
18819;BME280;9537;45.594;9.294;2022-08-02T00:36:36;99365.25;;;27.84;39.30
18819;BME280;9537;45.594;9.294;2022-08-02T00:37:39;99365.03;;;27.80;39.17
18819;BME280;9537;45.594;9.294;2022-08-02T00:38:40;99365.59;;;27.77;39.08
18819;BME280;9537;45.594;9.294;2022-08-02T00:39:43;99360.75;;;27.74;38.62
18819;BME280;9537;45.594;9.294;2022-08-02T00:40:46;99360.03;;;27.69;38.83
18819;BME280;9537;45.594;9.294;2022-08-02T00:41:50;99359.28;;;27.63;38.63
18819;BME280;9537;45.594;9.294;2022-08-02T00:43:00;99364.50;;;27.59;39.03
18819;BME280;9537;45.594;9.294;2022-08-02T00:44:03;99362.06;;;27.58;39.16
18819;BME280;9537;45.594;9.294;2022-08-02T00:45:05;99360.47;;;27.57;39.13
18819;BME280;9537;45.594;9.294;2022-08-02T00:46:08;99358.78;;;27.61;39.16
18819;BME280;9537;45.594;9.294;2022-08-02T00:47:09;99360.09;;;27.63;39.77
18819;BME280;9537;45.594;9.294;2022-08-02T00:48:12;99366.69;;;27.57;40.55
18819;BME280;9537;45.594;9.294;2022-08-02T00:49:14;99365.69;;;27.53;40.51
18819;BME280;9537;45.594;9.294;2022-08-02T00:50:16;99360.84;;;27.50;39.99
18819;BME280;9537;45.594;9.294;2022-08-02T00:51:17;99364.13;;;27.47;40.65
18819;BME280;9537;45.594;9.294;2022-08-02T00:52:19;99364.13;;;27.47;40.41
18819;BME280;9537;45.594;9.294;2022-08-02T00:53:20;99363.88;;;27.44;40.48
18819;BME280;9537;45.594;9.294;2022-08-02T00:54:22;99362.72;;;27.50;40.04
18819;BME280;9537;45.594;9.294;2022-08-02T00:55:23;99361.56;;;27.56;40.06
18819;BME280;9537;45.594;9.294;2022-08-02T00:56:25;99362.06;;;27.58;39.88
18819;BME280;9537;45.594;9.294;2022-08-02T00:57:26;99364.63;;;27.49;40.55
18819;BME280;9537;45.594;9.294;2022-08-02T00:58:28;99362.97;;;27.53;40.65
18819;BME280;9537;45.594;9.294;2022-08-02T00:59:29;99358.94;;;27.51;40.26
18819;BME280;9537;45.594;9.294;2022-08-02T01:00:31;99363.81;;;27.49;40.12
18819;BME280;9537;45.594;9.294;2022-08-02T01:01:33;99366.38;;;27.40;40.02
18819;BME280;9537;45.594;9.294;2022-08-02T01:02:42;99373.41;;;27.41;39.87
18819;BME280;9537;45.594;9.294;2022-08-02T01:03:43;99372.09;;;27.38;40.25
18819;BME280;9537;45.594;9.294;2022-08-02T01:04:45;99364.53;;;27.35;40.31
18819;BME280;9537;45.594;9.294;2022-08-02T01:05:46;99368.94;;;27.31;40.19
18819;BME280;9537;45.594;9.294;2022-08-02T01:06:48;99372.28;;;27.23;40.62
18819;BME280;9537;45.594;9.294;2022-08-02T01:07:49;99378.22;;;27.25;41.02
18819;BME280;9537;45.594;9.294;2022-08-02T01:08:51;99375.00;;;27.23;41.38
18819;BME280;9537;45.594;9.294;2022-08-02T01:09:52;99375.34;;;27.16;41.30
18819;BME280;9537;45.594;9.294;2022-08-02T01:10:54;99384.31;;;27.12;41.53
18819;BME280;9537;45.594;9.294;2022-08-02T01:11:55;99383.56;;;27.06;41.01
18819;BME280;9537;45.594;9.294;2022-08-02T01:12:57;99385.41;;;27.11;41.01
18819;BME280;9537;45.594;9.294;2022-08-02T01:14:02;99389.47;;;27.13;40.28
18819;BME280;9537;45.594;9.294;2022-08-02T01:15:08;99386.00;;;27.08;40.29
18819;BME280;9537;45.594;9.294;2022-08-02T01:16:14;99382.97;;;27.09;40.35
18819;BME280;9537;45.594;9.294;2022-08-02T01:17:21;99389.56;;;27.03;40.88
18819;BME280;9537;45.594;9.294;2022-08-02T01:18:30;99381.66;;;27.07;40.79
18819;BME280;9537;45.594;9.294;2022-08-02T01:19:41;99386.06;;;27.03;41.55
18819;BME280;9537;45.594;9.294;2022-08-02T01:21:00;99383.16;;;26.94;41.17
18819;BME280;9537;45.594;9.294;2022-08-02T01:24:11;99374.56;;;26.87;40.69
18819;BME280;9537;45.594;9.294;2022-08-02T01:26:48;99385.66;;;26.90;40.48
18819;BME280;9537;45.594;9.294;2022-08-02T01:28:04;99382.41;;;26.88;40.63
18819;BME280;9537;45.594;9.294;2022-08-02T01:29:14;99384.09;;;26.84;40.98
18819;BME280;9537;45.594;9.294;2022-08-02T01:30:17;99383.25;;;26.84;42.02
18819;BME280;9537;45.594;9.294;2022-08-02T01:31:24;99383.78;;;26.86;42.33
18819;BME280;9537;45.594;9.294;2022-08-02T01:32:29;99388.97;;;26.82;42.48
18819;BME280;9537;45.594;9.294;2022-08-02T01:33:48;99385.50;;;26.77;43.14
18819;BME280;9537;45.594;9.294;2022-08-02T01:34:55;99387.69;;;26.74;42.92
18819;BME280;9537;45.594;9.294;2022-08-02T01:36:01;99386.88;;;26.74;42.87
18819;BME280;9537;45.594;9.294;2022-08-02T01:37:08;99380.44;;;26.70;42.97
18819;BME280;9537;45.594;9.294;2022-08-02T01:38:15;99390.84;;;26.58;43.31
18819;BME280;9537;45.594;9.294;2022-08-02T01:39:23;99387.88;;;26.54;43.31
18819;BME280;9537;45.594;9.294;2022-08-02T01:40:29;99383.59;;;26.48;42.96
18819;BME280;9537;45.594;9.294;2022-08-02T01:41:32;99382.75;;;26.52;42.83
18819;BME280;9537;45.594;9.294;2022-08-02T01:42:39;99387.09;;;26.48;42.96
18819;BME280;9537;45.594;9.294;2022-08-02T01:43:44;99386.78;;;26.55;43.04
18819;BME280;9537;45.594;9.294;2022-08-02T01:44:48;99388.91;;;26.58;43.68
18819;BME280;9537;45.594;9.294;2022-08-02T01:45:52;99394.41;;;26.53;43.97
18819;BME280;9537;45.594;9.294;2022-08-02T01:46:59;99396.91;;;26.44;44.42
18819;BME280;9537;45.594;9.294;2022-08-02T01:48:02;99399.09;;;26.37;44.59
18819;BME280;9537;45.594;9.294;2022-08-02T01:49:06;99396.44;;;26.32;44.60
18819;BME280;9537;45.594;9.294;2022-08-02T01:50:13;99395.41;;;26.28;44.84
18819;BME280;9537;45.594;9.294;2022-08-02T01:51:45;99401.91;;;26.27;45.12
18819;BME280;9537;45.594;9.294;2022-08-02T01:53:08;99399.66;;;26.34;44.51
18819;BME280;9537;45.594;9.294;2022-08-02T01:54:13;99400.78;;;26.33;44.68
18819;BME280;9537;45.594;9.294;2022-08-02T01:55:18;99403.47;;;26.33;44.60
18819;BME280;9537;45.594;9.294;2022-08-02T01:56:22;99404.28;;;26.34;45.30
18819;BME280;9537;45.594;9.294;2022-08-02T01:57:25;99396.44;;;26.32;44.77
18819;BME280;9537;45.594;9.294;2022-08-02T01:58:32;99411.88;;;26.32;44.79
18819;BME280;9537;45.594;9.294;2022-08-02T01:59:36;99415.72;;;26.25;44.88
18819;BME280;9537;45.594;9.294;2022-08-02T02:00:41;99410.56;;;26.24;44.95
18819;BME280;9537;45.594;9.294;2022-08-02T02:01:44;99408.94;;;26.28;44.98
18819;BME280;9537;45.594;9.294;2022-08-02T02:02:52;99410.56;;;26.24;45.65
18819;BME280;9537;45.594;9.294;2022-08-02T02:03:54;99407.84;;;26.24;45.65
18819;BME280;9537;45.594;9.294;2022-08-02T02:04:58;99415.75;;;26.20;45.48
18819;BME280;9537;45.594;9.294;2022-08-02T02:06:02;99408.47;;;26.16;45.62
18819;BME280;9537;45.594;9.294;2022-08-02T02:07:06;99415.50;;;26.17;45.67
18819;BME280;9537;45.594;9.294;2022-08-02T02:08:08;99416.31;;;26.17;45.89
18819;BME280;9537;45.594;9.294;2022-08-02T02:09:11;99408.44;;;26.21;45.74
18819;BME280;9537;45.594;9.294;2022-08-02T02:10:18;99409.00;;;26.18;45.81
18819;BME280;9537;45.594;9.294;2022-08-02T02:11:21;99408.72;;;26.19;45.66
18819;BME280;9537;45.594;9.294;2022-08-02T02:12:23;99411.44;;;26.19;45.34
18819;BME280;9537;45.594;9.294;2022-08-02T02:13:26;99402.75;;;26.22;45.54
18819;BME280;9537;45.594;9.294;2022-08-02T02:14:28;99412.00;;;26.16;45.74
18819;BME280;9537;45.594;9.294;2022-08-02T02:15:33;99408.78;;;26.09;46.08
18819;BME280;9537;45.594;9.294;2022-08-02T02:16:35;99412.34;;;26.04;46.21
18819;BME280;9537;45.594;9.294;2022-08-02T02:17:41;99407.78;;;25.95;46.44
18819;BME280;9537;45.594;9.294;2022-08-02T02:18:43;99414.09;;;25.85;46.29
18819;BME280;9537;45.594;9.294;2022-08-02T02:19:48;99411.09;;;25.87;46.30
18819;BME280;9537;45.594;9.294;2022-08-02T02:20:52;99412.41;;;25.94;46.68
18819;BME280;9537;45.594;9.294;2022-08-02T02:21:53;99415.09;;;25.94;46.49
18819;BME280;9537;45.594;9.294;2022-08-02T02:22:57;99415.41;;;25.93;45.99
18819;BME280;9537;45.594;9.294;2022-08-02T02:24:02;99413.47;;;25.98;45.81
18819;BME280;9537;45.594;9.294;2022-08-02T02:25:06;99410.22;;;25.96;45.64
18819;BME280;9537;45.594;9.294;2022-08-02T02:26:09;99424.31;;;25.93;45.16
18819;BME280;9537;45.594;9.294;2022-08-02T02:27:27;99426.75;;;25.90;45.34
18819;BME280;9537;45.594;9.294;2022-08-02T02:28:30;99418.38;;;25.81;45.41
18819;BME280;9537;45.594;9.294;2022-08-02T02:29:33;99417.59;;;25.80;45.54
18819;BME280;9537;45.594;9.294;2022-08-02T02:30:40;99420.31;;;25.75;45.62
18819;BME280;9537;45.594;9.294;2022-08-02T02:31:45;99420.03;;;25.77;45.62
18819;BME280;9537;45.594;9.294;2022-08-02T02:32:49;99418.69;;;25.84;45.82
18819;BME280;9537;45.594;9.294;2022-08-02T02:33:58;99425.94;;;25.89;45.69
18819;BME280;9537;45.594;9.294;2022-08-02T02:35:02;99422.19;;;25.90;46.08
18819;BME280;9537;45.594;9.294;2022-08-02T02:36:05;99426.50;;;25.91;46.15
18819;BME280;9537;45.594;9.294;2022-08-02T02:37:12;99430.81;;;25.92;46.14
18819;BME280;9537;45.594;9.294;2022-08-02T02:38:17;99427.59;;;25.90;46.00
18819;BME280;9537;45.594;9.294;2022-08-02T02:39:21;99425.94;;;25.89;45.92
18819;BME280;9537;45.594;9.294;2022-08-02T02:40:25;99427.59;;;25.90;46.48
18819;BME280;9537;45.594;9.294;2022-08-02T02:41:28;99427.59;;;25.90;46.77
18819;BME280;9537;45.594;9.294;2022-08-02T02:42:30;99431.94;;;25.86;47.05
18819;BME280;9537;45.594;9.294;2022-08-02T02:43:34;99430.88;;;25.72;46.78
18819;BME280;9537;45.594;9.294;2022-08-02T02:44:38;99423.63;;;25.67;46.89
18819;BME280;9537;45.594;9.294;2022-08-02T02:45:42;99427.16;;;25.57;47.33
18819;BME280;9537;45.594;9.294;2022-08-02T02:46:45;99428.00;;;25.53;47.07
18819;BME280;9537;45.594;9.294;2022-08-02T02:47:48;99426.13;;;25.48;47.49
18819;BME280;9537;45.594;9.294;2022-08-02T02:48:50;99429.94;;;25.47;47.52
18819;BME280;9537;45.594;9.294;2022-08-02T02:49:53;99426.13;;;25.48;47.19
18819;BME280;9537;45.594;9.294;2022-08-02T02:50:55;99423.97;;;25.50;47.10
18819;BME280;9537;45.594;9.294;2022-08-02T02:51:58;99424.22;;;25.54;46.48
18819;BME280;9537;45.594;9.294;2022-08-02T02:52:59;99434.22;;;25.58;46.33
18819;BME280;9537;45.594;9.294;2022-08-02T02:54:02;99427.41;;;25.61;46.37
18819;BME280;9537;45.594;9.294;2022-08-02T02:55:04;99429.38;;;25.50;47.15
18819;BME280;9537;45.594;9.294;2022-08-02T02:56:07;99425.31;;;25.48;47.49
18819;BME280;9537;45.594;9.294;2022-08-02T02:57:09;99428.03;;;25.48;47.18
18819;BME280;9537;45.594;9.294;2022-08-02T02:58:12;99426.94;;;25.49;46.86
18819;BME280;9537;45.594;9.294;2022-08-02T02:59:14;99424.53;;;25.42;46.83
18819;BME280;9537;45.594;9.294;2022-08-02T03:00:17;99425.66;;;25.36;47.02
18819;BME280;9537;45.594;9.294;2022-08-02T03:01:39;99422.94;;;25.36;47.38
18819;BME280;9537;45.594;9.294;2022-08-02T03:02:43;99431.31;;;25.39;47.38
18819;BME280;9537;45.594;9.294;2022-08-02T03:03:45;99432.66;;;25.37;47.45
18819;BME280;9537;45.594;9.294;2022-08-02T03:04:48;99430.50;;;25.34;47.57
18819;BME280;9537;45.594;9.294;2022-08-02T03:06:13;99429.19;;;25.26;47.88
18819;BME280;9537;45.594;9.294;2022-08-02T03:07:15;99435.69;;;25.20;48.15
18819;BME280;9537;45.594;9.294;2022-08-02T03:08:16;99433.00;;;25.15;48.34
18819;BME280;9537;45.594;9.294;2022-08-02T03:09:18;99429.19;;;25.11;48.60
18819;BME280;9537;45.594;9.294;2022-08-02T03:10:20;99432.44;;;25.13;48.55
18819;BME280;9537;45.594;9.294;2022-08-02T03:11:22;99427.28;;;25.11;48.67
18819;BME280;9537;45.594;9.294;2022-08-02T03:12:24;99430.28;;;25.10;48.39
18819;BME280;9537;45.594;9.294;2022-08-02T03:13:27;99434.34;;;25.07;48.63
18819;BME280;9537;45.594;9.294;2022-08-02T03:14:29;99436.50;;;25.05;48.87
18819;BME280;9537;45.594;9.294;2022-08-02T03:15:31;99445.41;;;25.06;49.06
18819;BME280;9537;45.594;9.294;2022-08-02T03:16:42;99439.50;;;24.99;49.43
18819;BME280;9537;45.594;9.294;2022-08-02T03:17:45;99438.94;;;25.02;49.40
18819;BME280;9537;45.594;9.294;2022-08-02T03:18:46;99443.81;;;24.94;49.08
18819;BME280;9537;45.594;9.294;2022-08-02T03:19:48;99448.16;;;24.95;49.05
18819;BME280;9537;45.594;9.294;2022-08-02T03:20:49;99448.16;;;24.85;49.31
18819;BME280;9537;45.594;9.294;2022-08-02T03:21:51;99451.41;;;24.82;49.88
18819;BME280;9537;45.594;9.294;2022-08-02T03:22:58;99452.19;;;24.83;49.46
18819;BME280;9537;45.594;9.294;2022-08-02T03:24:00;99451.41;;;24.82;49.47
18819;BME280;9537;45.594;9.294;2022-08-02T03:25:01;99450.31;;;24.83;49.55
18819;BME280;9537;45.594;9.294;2022-08-02T03:26:03;99447.31;;;24.95;49.12
18819;BME280;9537;45.594;9.294;2022-08-02T03:27:04;99447.84;;;24.97;49.13
18819;BME280;9537;45.594;9.294;2022-08-02T03:28:06;99449.75;;;24.91;49.18
18819;BME280;9537;45.594;9.294;2022-08-02T03:29:07;99448.41;;;24.89;48.95
18819;BME280;9537;45.594;9.294;2022-08-02T03:30:11;99451.09;;;24.89;49.21
18819;BME280;9537;45.594;9.294;2022-08-02T03:31:12;99451.41;;;24.82;49.21
18819;BME280;9537;45.594;9.294;2022-08-02T03:32:15;99445.75;;;24.79;49.56
18819;BME280;9537;45.594;9.294;2022-08-02T03:33:17;99447.63;;;24.73;49.63
18819;BME280;9537;45.594;9.294;2022-08-02T03:34:20;99445.72;;;24.73;49.57
18819;BME280;9537;45.594;9.294;2022-08-02T03:35:21;99453.03;;;24.78;49.41
18819;BME280;9537;45.594;9.294;2022-08-02T03:36:25;99458.94;;;24.80;49.61
18819;BME280;9537;45.594;9.294;2022-08-02T03:37:28;99458.44;;;24.78;49.80
18819;BME280;9537;45.594;9.294;2022-08-02T03:38:31;99458.44;;;24.78;49.40
18819;BME280;9537;45.594;9.294;2022-08-02T03:39:51;99462.75;;;24.79;49.58
18819;BME280;9537;45.594;9.294;2022-08-02T03:40:53;99461.41;;;24.82;49.63
18819;BME280;9537;45.594;9.294;2022-08-02T03:41:57;99474.63;;;24.78;49.20
18819;BME280;9537;45.594;9.294;2022-08-02T03:43:00;99460.03;;;24.79;49.71
18819;BME280;9537;45.594;9.294;2022-08-02T03:44:03;99469.50;;;24.87;49.06
18819;BME280;9537;45.594;9.294;2022-08-02T03:45:07;99467.06;;;24.80;49.67
18819;BME280;9537;45.594;9.294;2022-08-02T03:46:11;99474.34;;;24.75;49.53
18819;BME280;9537;45.594;9.294;2022-08-02T03:47:16;99473.53;;;24.74;49.46
18819;BME280;9537;45.594;9.294;2022-08-02T03:48:19;99467.59;;;24.72;49.69
18819;BME280;9537;45.594;9.294;2022-08-02T03:49:20;99479.22;;;24.72;49.67
18819;BME280;9537;45.594;9.294;2022-08-02T03:50:23;99474.88;;;24.66;49.94
18819;BME280;9537;45.594;9.294;2022-08-02T03:51:25;99475.69;;;24.72;49.76
18819;BME280;9537;45.594;9.294;2022-08-02T03:52:27;99472.44;;;24.75;49.41
18819;BME280;9537;45.594;9.294;2022-08-02T03:53:29;99480.31;;;24.77;49.40
18819;BME280;9537;45.594;9.294;2022-08-02T03:54:32;99483.53;;;24.79;49.09
18819;BME280;9537;45.594;9.294;2022-08-02T03:55:33;99487.59;;;24.76;49.14
18819;BME280;9537;45.594;9.294;2022-08-02T03:56:35;99481.91;;;24.78;49.56
18819;BME280;9537;45.594;9.294;2022-08-02T03:57:37;99480.03;;;24.78;49.81
18819;BME280;9537;45.594;9.294;2022-08-02T03:58:39;99480.03;;;24.73;49.66
18819;BME280;9537;45.594;9.294;2022-08-02T03:59:40;99484.63;;;24.72;49.60
18819;BME280;9537;45.594;9.294;2022-08-02T04:00:43;99480.59;;;24.70;49.47
18819;BME280;9537;45.594;9.294;2022-08-02T04:01:44;99482.19;;;24.71;49.54
18819;BME280;9537;45.594;9.294;2022-08-02T04:02:48;99480.81;;;24.63;49.47
18819;BME280;9537;45.594;9.294;2022-08-02T04:03:49;99486.78;;;24.65;49.48
18819;BME280;9537;45.594;9.294;2022-08-02T04:04:50;99482.47;;;24.59;49.78
18819;BME280;9537;45.594;9.294;2022-08-02T04:05:52;99487.88;;;24.64;49.57
18819;BME280;9537;45.594;9.294;2022-08-02T04:06:54;99491.09;;;24.61;49.67
18819;BME280;9537;45.594;9.294;2022-08-02T04:07:56;99490.00;;;24.57;49.86
18819;BME280;9537;45.594;9.294;2022-08-02T04:08:58;99500.28;;;24.60;49.96
18819;BME280;9537;45.594;9.294;2022-08-02T04:09:59;99500.00;;;24.57;49.54
18819;BME280;9537;45.594;9.294;2022-08-02T04:11:01;99501.88;;;24.51;49.95
18819;BME280;9537;45.594;9.294;2022-08-02T04:12:21;99505.09;;;24.43;50.05
18819;BME280;9537;45.594;9.294;2022-08-02T04:13:25;99506.75;;;24.44;50.12
18819;BME280;9537;45.594;9.294;2022-08-02T04:14:27;99505.66;;;24.45;50.07
18819;BME280;9537;45.594;9.294;2022-08-02T04:15:29;99512.16;;;24.44;50.29
18819;BME280;9537;45.594;9.294;2022-08-02T04:16:38;99512.16;;;24.44;50.64
18819;BME280;9537;45.594;9.294;2022-08-02T04:17:47;99504.53;;;24.41;51.03
18819;BME280;9537;45.594;9.294;2022-08-02T04:18:55;99510.25;;;24.44;50.64
18819;BME280;9537;45.594;9.294;2022-08-02T04:20:01;99505.13;;;24.48;50.50
18819;BME280;9537;45.594;9.294;2022-08-02T04:21:05;99512.13;;;24.49;50.16
18819;BME280;9537;45.594;9.294;2022-08-02T04:22:09;99516.47;;;24.50;50.03
18819;BME280;9537;45.594;9.294;2022-08-02T04:23:16;99520.53;;;24.47;50.17
18819;BME280;9537;45.594;9.294;2022-08-02T04:24:19;99521.31;;;24.48;50.16
18819;BME280;9537;45.594;9.294;2022-08-02T04:25:23;99518.88;;;24.52;50.09
18819;BME280;9537;45.594;9.294;2022-08-02T04:26:25;99532.38;;;24.52;50.13
18819;BME280;9537;45.594;9.294;2022-08-02T04:27:28;99526.19;;;24.56;50.07
18819;BME280;9537;45.594;9.294;2022-08-02T04:28:31;99535.38;;;24.60;50.01
18819;BME280;9537;45.594;9.294;2022-08-02T04:29:45;99539.97;;;24.65;49.96
18819;BME280;9537;45.594;9.294;2022-08-02T04:30:48;99542.69;;;24.70;49.62
18819;BME280;9537;45.594;9.294;2022-08-02T04:31:52;99546.19;;;24.70;50.18
18819;BME280;9537;45.594;9.294;2022-08-02T04:32:53;99554.03;;;24.67;50.61
18819;BME280;9537;45.594;9.294;2022-08-02T04:33:57;99553.19;;;24.66;50.81
18819;BME280;9537;45.594;9.294;2022-08-02T04:35:00;99549.16;;;24.64;50.54
18819;BME280;9537;45.594;9.294;2022-08-02T04:36:04;99557.53;;;24.62;50.70
18819;BME280;9537;45.594;9.294;2022-08-02T04:37:06;99558.59;;;24.66;50.30
18819;BME280;9537;45.594;9.294;2022-08-02T04:38:08;99566.19;;;24.64;50.42
18819;BME280;9537;45.594;9.294;2022-08-02T04:39:09;99567.78;;;24.65;50.33
18819;BME280;9537;45.594;9.294;2022-08-02T04:40:12;99563.72;;;24.63;50.59
18819;BME280;9537;45.594;9.294;2022-08-02T04:41:13;99564.28;;;24.65;50.67
18819;BME280;9537;45.594;9.294;2022-08-02T04:42:19;99572.09;;;24.66;50.43
18819;BME280;9537;45.594;9.294;2022-08-02T04:43:22;99570.50;;;24.70;50.29
18819;BME280;9537;45.594;9.294;2022-08-02T04:44:24;99575.91;;;24.70;50.04
18819;BME280;9537;45.594;9.294;2022-08-02T04:45:25;99582.09;;;24.71;50.26
18819;BME280;9537;45.594;9.294;2022-08-02T04:46:28;99586.16;;;24.68;50.14
18819;BME280;9537;45.594;9.294;2022-08-02T04:47:29;99586.16;;;24.68;50.50
18819;BME280;9537;45.594;9.294;2022-08-02T04:48:31;99590.75;;;24.68;50.75
18819;BME280;9537;45.594;9.294;2022-08-02T04:49:33;99595.34;;;24.67;51.11
18819;BME280;9537;45.594;9.294;2022-08-02T04:50:36;99603.97;;;24.69;50.85
18819;BME280;9537;45.594;9.294;2022-08-02T04:51:45;99602.91;;;24.70;51.03
18819;BME280;9537;45.594;9.294;2022-08-02T04:52:47;99604.25;;;24.73;51.40
18819;BME280;9537;45.594;9.294;2022-08-02T04:53:48;99605.06;;;24.73;51.21
18819;BME280;9537;45.594;9.294;2022-08-02T04:55:03;99607.78;;;24.79;50.99
18819;BME280;9537;45.594;9.294;2022-08-02T04:56:05;99605.59;;;24.81;51.24
18819;BME280;9537;45.594;9.294;2022-08-02T04:57:06;99610.50;;;24.79;51.53
18819;BME280;9537;45.594;9.294;2022-08-02T04:58:22;99607.78;;;24.84;50.99
18819;BME280;9537;45.594;9.294;2022-08-02T04:59:24;99618.06;;;24.87;51.51
18819;BME280;9537;45.594;9.294;2022-08-02T05:00:26;99619.41;;;24.89;51.13
18819;BME280;9537;45.594;9.294;2022-08-02T05:01:28;99623.47;;;24.92;51.46
18819;BME280;9537;45.594;9.294;2022-08-02T05:02:30;99620.22;;;24.90;51.92
18819;BME280;9537;45.594;9.294;2022-08-02T05:03:31;99622.09;;;24.89;51.85
18819;BME280;9537;45.594;9.294;2022-08-02T05:04:34;99626.44;;;24.90;52.20
18819;BME280;9537;45.594;9.294;2022-08-02T05:05:35;99628.06;;;24.91;52.38
18819;BME280;9537;45.594;9.294;2022-08-02T05:06:37;99631.31;;;24.93;52.08
18819;BME280;9537;45.594;9.294;2022-08-02T05:07:39;99634.28;;;24.97;51.87
18819;BME280;9537;45.594;9.294;2022-08-02T05:08:40;99635.63;;;25.00;52.13
18819;BME280;9537;45.594;9.294;2022-08-02T05:09:42;99637.78;;;25.03;51.46
18819;BME280;9537;45.594;9.294;2022-08-02T05:10:43;99637.53;;;25.04;51.84
18819;BME280;9537;45.594;9.294;2022-08-02T05:11:45;99646.72;;;25.08;51.42
18819;BME280;9537;45.594;9.294;2022-08-02T05:12:46;99641.88;;;25.10;51.26
18819;BME280;9537;45.594;9.294;2022-08-02T05:13:48;99638.63;;;25.13;51.67
18819;BME280;9537;45.594;9.294;2022-08-02T05:14:49;99646.47;;;25.15;51.53
18819;BME280;9537;45.594;9.294;2022-08-02T05:15:51;99645.13;;;25.17;51.08
18819;BME280;9537;45.594;9.294;2022-08-02T05:16:52;99645.69;;;25.20;51.43
18819;BME280;9537;45.594;9.294;2022-08-02T05:17:54;99648.09;;;25.26;51.05
18819;BME280;9537;45.594;9.294;2022-08-02T05:18:54;99646.22;;;25.32;51.03
18819;BME280;9537;45.594;9.294;2022-08-02T05:19:58;99646.22;;;25.37;51.18
18819;BME280;9537;45.594;9.294;2022-08-02T05:20:59;99642.16;;;25.34;51.09
18819;BME280;9537;45.594;9.294;2022-08-02T05:22:01;99647.31;;;25.36;50.95
18819;BME280;9537;45.594;9.294;2022-08-02T05:23:01;99649.47;;;25.39;51.16
18819;BME280;9537;45.594;9.294;2022-08-02T05:24:05;99650.28;;;25.39;50.94
18819;BME280;9537;45.594;9.294;2022-08-02T05:25:07;99648.94;;;25.42;51.30
18819;BME280;9537;45.594;9.294;2022-08-02T05:26:09;99648.38;;;25.45;51.32
18819;BME280;9537;45.594;9.294;2022-08-02T05:27:11;99650.53;;;25.48;50.98
18819;BME280;9537;45.594;9.294;2022-08-02T05:28:12;99653.50;;;25.52;50.88
18819;BME280;9537;45.594;9.294;2022-08-02T05:29:13;99659.22;;;25.55;51.34
18819;BME280;9537;45.594;9.294;2022-08-02T05:30:14;99657.03;;;25.57;51.41
18819;BME280;9537;45.594;9.294;2022-08-02T05:31:16;99653.53;;;25.62;50.87
18819;BME280;9537;45.594;9.294;2022-08-02T05:32:17;99663.25;;;25.68;50.99
18819;BME280;9537;45.594;9.294;2022-08-02T05:33:19;99655.94;;;25.69;51.19
18819;BME280;9537;45.594;9.294;2022-08-02T05:34:21;99655.94;;;25.69;51.00
18819;BME280;9537;45.594;9.294;2022-08-02T05:35:24;99661.34;;;25.69;51.00
18819;BME280;9537;45.594;9.294;2022-08-02T05:36:26;99664.84;;;25.69;50.99
18819;BME280;9537;45.594;9.294;2022-08-02T05:37:27;99665.41;;;25.66;51.11
18819;BME280;9537;45.594;9.294;2022-08-02T05:38:29;99663.50;;;25.67;50.63
18819;BME280;9537;45.594;9.294;2022-08-02T05:39:31;99662.44;;;25.68;50.76
18819;BME280;9537;45.594;9.294;2022-08-02T05:40:32;99664.84;;;25.69;51.06
18819;BME280;9537;45.594;9.294;2022-08-02T05:41:34;99665.13;;;25.73;50.78
18819;BME280;9537;45.594;9.294;2022-08-02T05:42:56;99672.16;;;25.74;50.97
18819;BME280;9537;45.594;9.294;2022-08-02T05:43:58;99671.63;;;25.77;50.70
18819;BME280;9537;45.594;9.294;2022-08-02T05:44:59;99673.78;;;25.80;50.94